Time;durP1;ratioP1;P1;durP2;ratioP2;P2;SDS_P1;SDS_P2;PMS_P1;PMS_P2;Temp;Humidity;BMP_temperature;BMP_pressure;BME280_temperature;BME280_humidity;BME280_pressure;Samples;Min_cycle;Max_cycle;Signal;HPM_P1;HPM_P2
2021/06/22 00:01:04;;;;;;;22.07;20.77;;;20.40;89.60;;;;;;4961740;28;20471;-78
2021/06/22 00:03:31;;;;;;;22.80;21.60;;;20.30;89.90;;;;;;4963505;28;20925;-78
2021/06/22 00:05:58;;;;;;;22.87;21.67;;;20.30;90.40;;;;;;4959669;28;20581;-79
2021/06/22 00:08:25;;;;;;;22.37;21.07;;;20.40;89.60;;;;;;4963651;28;20867;-78
2021/06/22 00:10:52;;;;;;;21.53;20.37;;;20.40;89.40;;;;;;4963066;28;20572;-79
2021/06/22 00:13:21;;;;;;;23.27;21.80;;;20.40;88.70;;;;;;4961037;28;20489;-78
2021/06/22 00:15:48;;;;;;;22.60;21.40;;;20.30;89.20;;;;;;4962791;28;20463;-78
2021/06/22 00:18:15;;;;;;;22.53;21.33;;;20.30;89.10;;;;;;4960819;28;21026;-80
2021/06/22 00:20:42;;;;;;;22.60;21.30;;;20.30;88.90;;;;;;4961423;28;20459;-78
2021/06/22 00:23:09;;;;;;;23.00;21.70;;;20.20;88.90;;;;;;4962981;28;20824;-78
2021/06/22 00:25:36;;;;;;;22.43;21.27;;;20.10;88.70;;;;;;4961194;28;20564;-78
2021/06/22 00:28:03;;;;;;;22.53;21.20;;;20.10;88.80;;;;;;4969617;28;20477;-79
2021/06/22 00:30:32;;;;;;;23.27;21.90;;;20.10;88.90;;;;;;4966445;28;20867;-78
2021/06/22 00:32:59;;;;;;;22.00;20.83;;;20.00;89.20;;;;;;4966158;28;20976;-78
2021/06/22 00:35:25;;;;;;;22.43;21.33;;;20.00;89.40;;;;;;4967203;28;20470;-78
2021/06/22 00:37:52;;;;;;;22.90;21.60;;;20.00;89.30;;;;;;4963331;28;20569;-78
2021/06/22 00:40:20;;;;;;;21.63;20.53;;;20.00;89.10;;;;;;4961055;28;21019;-78
2021/06/22 00:42:48;;;;;;;22.67;21.47;;;20.00;89.00;;;;;;4964027;28;20581;-78
2021/06/22 00:45:16;;;;;;;22.73;21.40;;;19.90;89.40;;;;;;4960752;28;20491;-79
2021/06/22 00:47:45;;;;;;;24.10;22.60;;;19.90;89.90;;;;;;4959653;28;20455;-78
2021/06/22 00:50:12;;;;;;;23.40;22.00;;;19.80;90.00;;;;;;4959962;28;20481;-78
2021/06/22 00:52:39;;;;;;;23.03;21.63;;;19.60;90.60;;;;;;4976887;28;20461;-78
2021/06/22 00:55:12;;;;;;;24.13;22.63;;;19.60;91.20;;;;;;4961877;28;20485;-78
2021/06/22 00:57:39;;;;;;;23.50;22.30;;;19.50;91.40;;;;;;4962420;28;21287;-79
2021/06/22 01:00:08;;;;;;;24.67;22.90;;;19.50;91.60;;;;;;4962495;28;20470;-78
2021/06/22 01:02:35;;;;;;;23.00;21.67;;;19.70;91.00;;;;;;5007772;28;20891;-77
2021/06/22 01:05:04;;;;;;;22.77;21.63;;;19.80;90.70;;;;;;4966716;28;20478;-80
2021/06/22 01:07:31;;;;;;;24.30;22.80;;;19.80;91.00;;;;;;4961240;28;20599;-79
2021/06/22 01:09:58;;;;;;;23.90;22.67;;;19.80;90.10;;;;;;4962639;28;20494;-78
2021/06/22 01:12:25;;;;;;;22.73;21.47;;;19.80;90.30;;;;;;4965237;28;21035;-80
2021/06/22 01:14:52;;;;;;;21.83;20.50;;;19.80;90.60;;;;;;4964106;28;20479;-80
2021/06/22 01:17:19;;;;;;;22.70;20.90;;;19.90;90.60;;;;;;4961570;28;20466;-78
2021/06/22 01:19:47;;;;;;;22.17;20.80;;;19.90;90.00;;;;;;4983972;28;20470;-79
2021/06/22 01:22:15;;;;;;;22.23;20.90;;;19.90;90.30;;;;;;4965695;28;20474;-78
2021/06/22 01:24:42;;;;;;;22.03;20.93;;;20.00;90.40;;;;;;4976002;28;20474;-78
2021/06/22 01:27:10;;;;;;;22.40;21.20;;;20.00;89.70;;;;;;4973958;28;20774;-78
2021/06/22 01:29:37;;;;;;;23.00;21.87;;;20.00;90.20;;;;;;4964470;28;20466;-79
2021/06/22 01:32:07;;;;;;;22.60;21.30;;;20.00;90.30;;;;;;4966378;28;20994;-78
2021/06/22 01:34:34;;;;;;;22.93;21.70;;;19.90;90.40;;;;;;4962111;28;20490;-80
2021/06/22 01:37:01;;;;;;;21.83;20.63;;;19.90;90.40;;;;;;4961529;28;20463;-78
2021/06/22 01:39:29;;;;;;;22.20;20.90;;;19.90;90.40;;;;;;4964376;28;20487;-79
2021/06/22 01:41:57;;;;;;;23.10;21.60;;;19.80;90.50;;;;;;4977389;28;20458;-79
2021/06/22 01:44:28;;;;;;;22.77;21.47;;;19.80;90.40;;;;;;4962206;28;20489;-78
2021/06/22 01:46:55;;;;;;;23.17;21.73;;;19.80;90.30;;;;;;4962226;28;20483;-78
2021/06/22 01:49:22;;;;;;;23.20;21.77;;;19.80;90.40;;;;;;4962891;28;21098;-80
2021/06/22 01:51:49;;;;;;;23.17;21.77;;;19.70;90.40;;;;;;4964499;28;20496;-78
2021/06/22 01:54:16;;;;;;;22.60;21.17;;;19.70;90.30;;;;;;4967228;28;21086;-80
2021/06/22 01:56:49;;;;;;;22.10;20.80;;;19.80;90.10;;;;;;4960346;28;20471;-78
2021/06/22 01:59:16;;;;;;;22.10;20.80;;;19.80;89.90;;;;;;4963668;28;20491;-78
2021/06/22 02:01:43;;;;;;;22.53;21.00;;;19.70;89.80;;;;;;4970572;28;21191;-79
2021/06/22 02:04:10;;;;;;;23.63;22.00;;;19.60;90.30;;;;;;4965516;28;20857;-78
2021/06/22 02:06:37;;;;;;;23.60;22.13;;;19.60;90.30;;;;;;4960234;28;20469;-78
2021/06/22 02:09:05;;;;;;;22.33;21.00;;;19.60;90.20;;;;;;4961011;28;20972;-77
2021/06/22 02:11:32;;;;;;;23.50;22.00;;;19.50;90.30;;;;;;4961802;28;21371;-77
2021/06/22 02:14:03;;;;;;;23.50;22.00;;;19.40;90.50;;;;;;4961882;28;20491;-77
2021/06/22 02:16:30;;;;;;;22.90;21.60;;;19.40;90.50;;;;;;4962016;28;20467;-77
2021/06/22 02:18:57;;;;;;;22.57;21.27;;;19.50;90.40;;;;;;4961419;28;20494;-77
2021/06/22 02:21:24;;;;;;;23.60;22.10;;;19.50;90.30;;;;;;4958254;28;20530;-77
2021/06/22 02:23:51;;;;;;;24.00;22.63;;;19.40;90.00;;;;;;4987442;28;20569;-77
2021/06/22 02:26:19;;;;;;;22.50;21.30;;;19.40;90.00;;;;;;4960699;28;20974;-77
2021/06/22 02:28:46;;;;;;;22.67;21.10;;;19.40;90.20;;;;;;4961219;28;20467;-77
2021/06/22 02:31:14;;;;;;;23.37;21.87;;;19.40;90.20;;;;;;4961930;28;20510;-77
2021/06/22 02:33:41;;;;;;;23.60;21.93;;;19.40;89.90;;;;;;4962169;28;20510;-77
2021/06/22 02:36:08;;;;;;;22.77;21.57;;;19.30;90.00;;;;;;4961940;28;20551;-77
2021/06/22 02:38:35;;;;;;;24.00;22.80;;;19.30;89.90;;;;;;4960327;28;20980;-77
2021/06/22 02:41:02;;;;;;;23.20;21.80;;;19.30;89.80;;;;;;4960035;28;20467;-77
2021/06/22 02:43:29;;;;;;;22.20;21.10;;;19.30;89.90;;;;;;4962161;28;20482;-77
2021/06/22 02:45:56;;;;;;;24.13;22.93;;;19.40;89.70;;;;;;4960658;28;20916;-77
2021/06/22 02:48:24;;;;;;;23.20;21.90;;;19.30;89.90;;;;;;4962625;28;21046;-77
2021/06/22 02:50:51;;;;;;;23.53;22.10;;;19.30;89.90;;;;;;4960095;28;20458;-77
2021/06/22 02:53:19;;;;;;;23.13;21.73;;;19.30;89.70;;;;;;4967023;28;20475;-77
2021/06/22 02:55:46;;;;;;;25.53;24.03;;;19.30;89.60;;;;;;4960719;28;20950;-77
2021/06/22 02:58:13;;;;;;;21.87;20.67;;;19.30;89.50;;;;;;4960766;28;20494;-77
2021/06/22 03:00:40;;;;;;;22.17;20.97;;;19.30;89.50;;;;;;4963865;28;20481;-77
2021/06/22 03:03:07;;;;;;;22.90;21.70;;;19.30;89.60;;;;;;4962050;28;20554;-78
2021/06/22 03:05:36;;;;;;;22.87;21.67;;;19.30;89.70;;;;;;4958868;28;20554;-78
2021/06/22 03:08:03;;;;;;;23.77;22.17;;;19.30;89.80;;;;;;4969982;28;20643;-78
2021/06/22 03:10:30;;;;;;;23.27;21.97;;;19.30;89.90;;;;;;4962152;28;20462;-77
2021/06/22 03:12:57;;;;;;;24.37;22.67;;;19.20;90.10;;;;;;4968273;28;20556;-77
2021/06/22 03:15:24;;;;;;;24.07;22.57;;;19.20;90.30;;;;;;4962641;28;20679;-77
2021/06/22 03:17:51;;;;;;;24.33;22.93;;;19.20;90.80;;;;;;4964923;28;20470;-77
2021/06/22 03:20:19;;;;;;;23.10;21.60;;;19.20;90.40;;;;;;4962608;28;20467;-78
2021/06/22 03:22:47;;;;;;;23.70;22.30;;;19.30;90.20;;;;;;4966045;28;20494;-77
2021/06/22 03:25:15;;;;;;;25.80;24.10;;;19.30;90.20;;;;;;4963007;28;20481;-77
2021/06/22 03:27:44;;;;;;;23.00;21.80;;;19.30;89.80;;;;;;4961082;28;20470;-77
2021/06/22 03:30:12;;;;;;;26.10;24.40;;;19.30;90.00;;;;;;4963465;28;20465;-77
2021/06/22 03:32:43;;;;;;;27.10;25.47;;;19.30;90.20;;;;;;4966200;28;21018;-77
2021/06/22 03:35:11;;;;;;;25.83;24.43;;;19.20;90.00;;;;;;4985110;28;20478;-77
2021/06/22 03:37:38;;;;;;;23.17;21.97;;;19.20;90.30;;;;;;4962244;28;20466;-77
2021/06/22 03:40:08;;;;;;;26.50;25.03;;;19.20;90.60;;;;;;4963560;28;20936;-77
2021/06/22 03:42:35;;;;;;;25.30;24.00;;;19.30;90.30;;;;;;4957809;28;20459;-77
2021/06/22 03:45:04;;;;;;;27.00;25.50;;;19.40;89.50;;;;;;4966505;28;20859;-77
2021/06/22 03:47:31;;;;;;;24.20;22.97;;;19.50;89.20;;;;;;4962530;28;20604;-77
2021/06/22 03:49:58;;;;;;;24.03;22.50;;;19.50;89.30;;;;;;4965062;28;21008;-77
2021/06/22 03:52:24;;;;;;;26.60;25.10;;;19.50;89.30;;;;;;4962798;28;20542;-77
2021/06/22 03:54:51;;;;;;;24.90;23.50;;;19.50;89.10;;;;;;4966406;28;20479;-77
2021/06/22 03:57:20;;;;;;;25.17;23.77;;;19.60;88.90;;;;;;4967367;28;20995;-77
2021/06/22 03:59:46;;;;;;;24.00;22.80;;;19.50;89.00;;;;;;4963261;28;20570;-77
2021/06/22 04:02:13;;;;;;;24.90;23.40;;;19.50;89.00;;;;;;4963067;28;20467;-77
2021/06/22 04:04:40;;;;;;;24.60;22.97;;;19.50;89.30;;;;;;4963568;28;20633;-77
2021/06/22 04:07:07;;;;;;;24.80;23.50;;;19.50;89.40;;;;;;4961835;28;20901;-77
2021/06/22 04:09:34;;;;;;;26.67;25.10;;;19.50;89.20;;;;;;4962319;28;20458;-77
2021/06/22 04:12:01;;;;;;;24.57;23.00;;;19.50;89.20;;;;;;4960492;28;20578;-77
2021/06/22 04:14:30;;;;;;;27.07;25.50;;;19.50;89.40;;;;;;4961040;28;20487;-79
2021/06/22 04:16:58;;;;;;;24.40;23.10;;;19.40;89.60;;;;;;4963018;28;20489;-77
2021/06/22 04:19:25;;;;;;;25.97;24.57;;;19.50;89.50;;;;;;4965944;28;20566;-78
2021/06/22 04:21:52;;;;;;;26.53;25.23;;;19.50;89.20;;;;;;4962881;28;20961;-78
2021/06/22 04:24:18;;;;;;;25.23;23.87;;;19.50;89.60;;;;;;4963241;28;20625;-78
2021/06/22 04:26:45;;;;;;;25.30;23.80;;;19.50;89.70;;;;;;4960740;28;20463;-78
2021/06/22 04:29:12;;;;;;;26.53;24.87;;;19.50;89.40;;;;;;4970409;28;20834;-79
2021/06/22 04:31:40;;;;;;;25.47;23.97;;;19.60;89.40;;;;;;4963564;28;20467;-79
2021/06/22 04:34:10;;;;;;;28.50;27.00;;;19.70;89.10;;;;;;4963506;28;21178;-78
2021/06/22 04:36:37;;;;;;;27.63;26.07;;;19.80;88.70;;;;;;4961432;28;20463;-80
2021/06/22 04:39:04;;;;;;;24.40;22.70;;;19.90;88.50;;;;;;4978499;28;20474;-78
2021/06/22 04:41:32;;;;;;;28.33;26.47;;;20.10;87.70;;;;;;4961666;28;20286;-78
2021/06/22 04:43:59;;;;;;;27.27;25.77;;;20.10;87.90;;;;;;4965034;28;20888;-79
2021/06/22 04:46:25;;;;;;;28.13;26.27;;;20.20;87.50;;;;;;4965356;28;20865;-79
2021/06/22 04:48:54;;;;;;;27.97;25.97;;;20.20;87.60;;;;;;4983398;28;20462;-78
2021/06/22 04:51:21;;;;;;;30.80;28.83;;;20.20;87.40;;;;;;4974396;28;21067;-79
2021/06/22 04:53:48;;;;;;;29.70;28.00;;;20.30;87.20;;;;;;4970464;28;20593;-77
2021/06/22 04:56:15;;;;;;;28.57;26.97;;;20.40;86.90;;;;;;4961322;28;20497;-79
2021/06/22 04:58:42;;;;;;;30.80;29.10;;;20.60;86.50;;;;;;4962407;28;20643;-77
2021/06/22 05:01:09;;;;;;;30.70;29.00;;;20.60;86.10;;;;;;4961502;28;20514;-78
2021/06/22 05:03:36;;;;;;;32.57;30.47;;;20.70;85.50;;;;;;4961166;28;20486;-76
2021/06/22 05:06:05;;;;;;;26.37;24.90;;;20.70;85.50;;;;;;4964205;28;20495;-78
2021/06/22 05:08:32;;;;;;;27.57;25.67;;;20.80;85.50;;;;;;4960534;28;20484;-78
2021/06/22 05:10:59;;;;;;;31.40;29.70;;;20.80;85.60;;;;;;4966076;28;20467;-78
2021/06/22 05:13:26;;;;;;;28.80;27.00;;;20.70;85.90;;;;;;4960722;28;20571;-77
2021/06/22 05:15:53;;;;;;;29.00;27.30;;;20.70;85.90;;;;;;4963495;28;20490;-76
2021/06/22 05:18:20;;;;;;;28.97;27.30;;;20.80;86.10;;;;;;4959049;28;20460;-76
2021/06/22 05:20:47;;;;;;;32.53;30.63;;;20.80;86.10;;;;;;4961118;28;20492;-77
2021/06/22 05:23:16;;;;;;;33.83;31.73;;;20.90;85.60;;;;;;4956097;28;20498;-77
2021/06/22 05:25:43;;;;;;;30.40;28.67;;;20.90;85.60;;;;;;4956170;28;20458;-77
2021/06/22 05:28:10;;;;;;;32.03;30.00;;;20.90;85.70;;;;;;4963298;28;20471;-76
2021/06/22 05:30:37;;;;;;;33.20;31.00;;;21.00;85.80;;;;;;4959150;28;20926;-78
2021/06/22 05:33:04;;;;;;;30.93;29.10;;;21.00;85.70;;;;;;4972108;28;20462;-77
2021/06/22 05:35:32;;;;;;;33.80;31.60;;;21.00;85.70;;;;;;4962106;28;21246;-78
2021/06/22 05:37:59;;;;;;;30.60;28.50;;;21.10;85.90;;;;;;4962481;28;20467;-78
2021/06/22 05:40:28;;;;;;;29.60;27.80;;;21.10;87.80;;;;;;4968300;28;20935;-79
2021/06/22 05:42:55;;;;;;;31.60;29.40;;;21.20;86.80;;;;;;4968790;28;20535;-81
2021/06/22 05:45:22;;;;;;;33.23;31.37;;;21.10;86.60;;;;;;4966329;28;20931;-83
2021/06/22 05:47:50;;;;;;;35.20;33.00;;;21.20;86.40;;;;;;4967507;28;21024;-80
2021/06/22 05:50:17;;;;;;;32.80;30.07;;;21.30;86.30;;;;;;4964202;28;20462;-82
2021/06/22 05:52:45;;;;;;;31.27;29.13;;;21.50;85.20;;;;;;4974360;28;20877;-80
2021/06/22 05:55:21;;;;;;;34.30;32.07;;;21.50;84.90;;;;;;4964387;28;21400;-83
2021/06/22 05:57:51;;;;;;;30.87;29.13;;;21.50;86.10;;;;;;4971528;28;20463;-82
2021/06/22 06:00:20;;;;;;;31.00;28.87;;;21.40;86.10;;;;;;4977843;28;20482;-81
2021/06/22 06:02:49;;;;;;;35.40;33.30;;;21.50;86.20;;;;;;4965030;28;20457;-80
2021/06/22 06:05:16;;;;;;;34.77;32.57;;;21.40;85.20;;;;;;4959229;28;20506;-80
2021/06/22 06:07:43;;;;;;;31.70;29.60;;;21.40;84.80;;;;;;5015742;28;20498;-80
2021/06/22 06:10:11;;;;;;;31.90;29.80;;;21.40;85.30;;;;;;4978625;28;20486;-80
2021/06/22 06:12:38;;;;;;;32.17;29.80;;;21.00;86.30;;;;;;4970927;28;20458;-79
2021/06/22 06:15:14;;;;;;;33.00;31.00;;;20.90;86.80;;;;;;4963290;28;20478;-80
2021/06/22 06:17:41;;;;;;;33.47;31.47;;;20.60;87.90;;;;;;4965548;28;21153;-81
2021/06/22 06:20:10;;;;;;;33.47;31.07;;;20.60;88.00;;;;;;4959848;28;20489;-78
2021/06/22 06:22:38;;;;;;;31.57;29.77;;;20.70;87.70;;;;;;4965069;28;20466;-81
2021/06/22 06:25:06;;;;;;;30.93;28.93;;;20.80;87.40;;;;;;4954019;28;20481;-79
2021/06/22 06:27:45;;;;;;;32.70;30.73;;;20.90;87.10;;;;;;4973033;28;20461;-82
2021/06/22 06:30:17;;;;;;;32.90;30.90;;;20.90;87.10;;;;;;4963003;28;20470;-77
2021/06/22 06:32:45;;;;;;;33.23;30.93;;;20.90;87.20;;;;;;4981579;28;21062;-77
2021/06/22 06:35:13;;;;;;;31.23;29.23;;;20.90;87.30;;;;;;4966227;28;20484;-79
2021/06/22 06:37:40;;;;;;;31.53;29.63;;;21.00;86.80;;;;;;4959063;28;20469;-77
2021/06/22 06:40:09;;;;;;;31.73;29.30;;;21.00;86.70;;;;;;4952360;28;20493;-77
2021/06/22 06:42:36;;;;;;;34.70;32.60;;;21.10;86.30;;;;;;4963815;28;20478;-77
2021/06/22 06:45:03;;;;;;;32.60;30.50;;;21.20;86.00;;;;;;4977317;28;20594;-78
2021/06/22 06:47:32;;;;;;;32.10;29.97;;;21.10;86.00;;;;;;4969411;28;20470;-77
2021/06/22 06:49:59;;;;;;;33.47;31.37;;;21.40;85.40;;;;;;4994503;28;20494;-78
2021/06/22 06:52:26;;;;;;;31.93;29.63;;;21.70;84.50;;;;;;5010945;28;20888;-78
2021/06/22 06:54:53;;;;;;;34.60;32.50;;;21.90;83.70;;;;;;4977383;28;20478;-78
2021/06/22 06:57:20;;;;;;;34.53;32.50;;;21.90;83.40;;;;;;4977730;28;20568;-78
2021/06/22 06:59:47;;;;;;;33.70;31.57;;;22.30;82.00;;;;;;4969141;28;20482;-78
2021/06/22 07:02:13;;;;;;;36.00;33.90;;;22.60;81.40;;;;;;5015200;28;20569;-78
2021/06/22 07:04:42;;;;;;;35.10;32.67;;;22.90;79.30;;;;;;4985383;28;20509;-78
2021/06/22 07:07:09;;;;;;;34.23;31.80;;;22.90;79.20;;;;;;4970509;28;21117;-78
2021/06/22 07:09:35;;;;;;;35.33;33.00;;;23.00;79.10;;;;;;4973521;28;20997;-78
2021/06/22 07:12:03;;;;;;;36.20;33.87;;;23.00;79.00;;;;;;4988205;28;20561;-78
2021/06/22 07:14:30;;;;;;;34.70;32.57;;;22.80;79.10;;;;;;4981778;28;20779;-78
2021/06/22 07:16:56;;;;;;;36.97;34.57;;;22.90;79.70;;;;;;5010859;28;20550;-78
2021/06/22 07:19:24;;;;;;;34.23;32.13;;;23.10;78.70;;;;;;5014744;28;20463;-78
2021/06/22 07:21:52;;;;;;;36.80;34.40;;;23.30;78.60;;;;;;4990258;28;20473;-78
2021/06/22 07:24:21;;;;;;;41.97;39.07;;;23.40;77.30;;;;;;5025219;28;20565;-80
2021/06/22 07:26:48;;;;;;;36.90;34.70;;;23.50;77.40;;;;;;4970883;28;20458;-79
2021/06/22 07:29:15;;;;;;;36.53;33.67;;;23.70;76.80;;;;;;4969730;28;20473;-81
2021/06/22 07:31:42;;;;;;;35.97;33.80;;;23.70;76.70;;;;;;4997006;28;22071;-80
2021/06/22 07:34:09;;;;;;;39.17;36.67;;;24.20;76.20;;;;;;4970072;28;20496;-75
2021/06/22 07:36:36;;;;;;;37.20;34.57;;;24.50;75.40;;;;;;4983366;28;20524;-77
2021/06/22 07:39:05;;;;;;;37.10;34.50;;;24.80;73.60;;;;;;5013580;28;20462;-77
2021/06/22 07:41:32;;;;;;;35.60;33.50;;;25.00;71.80;;;;;;5009890;28;20494;-77
2021/06/22 07:43:59;;;;;;;35.80;33.60;;;24.90;71.40;;;;;;4977244;28;20524;-77
2021/06/22 07:46:26;;;;;;;34.30;32.20;;;25.00;71.70;;;;;;4962393;28;20463;-77
2021/06/22 07:48:53;;;;;;;37.50;35.30;;;24.90;71.60;;;;;;4964734;28;20462;-77
2021/06/22 07:51:20;;;;;;;34.20;31.90;;;24.80;71.70;;;;;;4966761;28;20455;-78
2021/06/22 07:53:47;;;;;;;38.87;36.17;;;24.80;72.30;;;;;;4962714;28;20484;-78
2021/06/22 07:56:16;;;;;;;33.63;31.53;;;25.00;72.40;;;;;;4957374;28;21009;-78
2021/06/22 07:58:43;;;;;;;37.33;35.13;;;25.60;70.30;;;;;;4960265;28;20463;-77
2021/06/22 08:01:10;;;;;;;33.17;31.37;;;25.80;69.70;;;;;;4964468;28;20482;-78
2021/06/22 08:03:37;;;;;;;32.90;30.67;;;26.00;68.70;;;;;;4987016;28;20995;-77
2021/06/22 08:06:05;;;;;;;31.30;29.30;;;26.00;67.50;;;;;;4958989;28;20552;-77
2021/06/22 08:08:32;;;;;;;30.53;28.63;;;25.70;67.40;;;;;;5022606;28;20464;-77
2021/06/22 08:10:59;;;;;;;33.50;31.60;;;25.00;68.50;;;;;;5002583;28;20450;-77
2021/06/22 08:13:28;;;;;;;31.47;29.40;;;24.60;69.80;;;;;;4993919;28;20569;-77
2021/06/22 08:15:56;;;;;;;31.40;29.57;;;24.30;70.60;;;;;;4966149;28;20532;-77
2021/06/22 08:18:23;;;;;;;31.20;29.50;;;24.30;70.40;;;;;;4967226;28;20475;-77
2021/06/22 08:20:53;;;;;;;30.93;29.03;;;24.20;70.60;;;;;;4996893;28;20911;-77
2021/06/22 08:23:21;;;;;;;30.80;29.10;;;24.40;70.70;;;;;;4950655;28;20516;-77
2021/06/22 08:25:48;;;;;;;29.77;28.17;;;24.50;69.80;;;;;;4981358;28;20471;-77
2021/06/22 08:28:19;;;;;;;29.70;27.90;;;24.40;69.90;;;;;;5009794;28;20473;-77
2021/06/22 08:30:47;;;;;;;31.93;30.13;;;24.40;70.20;;;;;;4984354;28;20786;-77
2021/06/22 08:33:14;;;;;;;29.37;27.77;;;24.20;70.90;;;;;;4987010;28;20941;-77
2021/06/22 08:35:42;;;;;;;31.50;29.77;;;24.00;71.90;;;;;;4957713;28;20683;-77
2021/06/22 08:38:11;;;;;;;29.20;27.60;;;24.10;72.50;;;;;;5012242;28;20466;-77
2021/06/22 08:40:39;;;;;;;29.60;27.80;;;24.00;70.90;;;;;;4980731;28;20489;-77
2021/06/22 08:43:06;;;;;;;29.00;27.23;;;23.80;71.40;;;;;;4964750;28;20561;-77
2021/06/22 08:45:33;;;;;;;36.87;34.83;;;23.80;69.10;;;;;;4960249;28;20513;-77
2021/06/22 08:48:05;;;;;;;28.07;26.53;;;23.70;69.30;;;;;;4998447;28;20541;-77
2021/06/22 08:50:32;;;;;;;29.73;28.00;;;23.60;71.40;;;;;;4979177;28;20454;-77
2021/06/22 08:52:59;;;;;;;29.30;27.60;;;23.10;72.60;;;;;;4975512;28;20563;-77
2021/06/22 08:55:27;;;;;;;32.20;30.20;;;23.10;73.70;;;;;;4961547;28;20952;-77
2021/06/22 08:57:55;;;;;;;33.00;31.07;;;23.20;75.90;;;;;;4985356;28;20458;-76
2021/06/22 09:00:23;;;;;;;38.87;36.53;;;23.10;77.90;;;;;;5007800;28;20478;-77
2021/06/22 09:03:01;;;;;;;36.83;34.43;;;23.10;77.20;;;;;;4963374;28;20608;-77
2021/06/22 09:05:29;;;;;;;34.40;32.33;;;23.30;77.60;;;;;;4961660;28;20466;-77
2021/06/22 09:07:56;;;;;;;31.63;29.70;;;23.30;75.20;;;;;;4961807;28;20463;-77
2021/06/22 09:10:25;;;;;;;32.50;30.50;;;23.30;74.10;;;;;;4968833;28;20459;-77
2021/06/22 09:12:54;;;;;;;34.40;32.23;;;23.40;75.80;;;;;;4970017;28;20546;-77
2021/06/22 09:15:24;;;;;;;36.87;34.50;;;23.50;75.00;;;;;;4978212;28;20493;-77
2021/06/22 09:17:51;;;;;;;35.67;33.37;;;23.30;75.30;;;;;;4957555;28;20975;-77
2021/06/22 09:20:37;;;;;;;36.87;34.50;;;22.80;78.20;;;;;;4956352;28;20919;-75
2021/06/22 09:23:10;;;;;;;32.93;30.60;;;22.60;80.00;;;;;;4960961;28;20459;-76
2021/06/22 09:25:37;;;;;;;35.90;33.63;;;22.50;78.50;;;;;;5026769;28;20478;-76
2021/06/22 09:28:04;;;;;;;34.87;32.87;;;22.50;80.30;;;;;;4962720;28;20462;-76
2021/06/22 09:30:57;;;;;;;34.80;32.70;;;22.50;80.70;;;;;;4984958;28;20491;-76
2021/06/22 09:33:42;;;;;;;38.30;35.70;;;22.30;80.60;;;;;;4988022;28;20788;-77
2021/06/22 09:36:13;;;;;;;35.60;33.40;;;22.10;82.40;;;;;;4979064;28;20619;-78
2021/06/22 09:38:43;;;;;;;34.93;32.30;;;22.10;83.20;;;;;;4978711;28;20502;-77
2021/06/22 09:41:17;;;;;;;33.27;31.27;;;22.20;83.20;;;;;;4984501;28;20482;-78
2021/06/22 09:43:46;;;;;;;32.90;31.00;;;22.60;82.10;;;;;;4980122;28;20956;-77
2021/06/22 09:46:15;;;;;;;34.20;32.10;;;22.70;80.30;;;;;;4962430;28;20467;-77
2021/06/22 09:48:52;;;;;;;37.50;35.20;;;22.50;80.00;;;;;;4964258;28;20671;-77
2021/06/22 09:51:27;;;;;;;32.70;30.70;;;22.30;79.50;;;;;;4973729;28;20482;-76
2021/06/22 09:53:54;;;;;;;33.00;30.80;;;22.30;79.40;;;;;;5012340;28;20481;-77
2021/06/22 09:56:25;;;;;;;33.90;31.90;;;22.50;79.40;;;;;;4971615;28;20469;-77
2021/06/22 09:58:52;;;;;;;35.30;33.13;;;22.80;79.00;;;;;;4984897;28;20751;-76
2021/06/22 10:01:31;;;;;;;37.40;35.10;;;22.90;78.40;;;;;;4980199;28;20766;-77
2021/06/22 10:04:14;;;;;;;36.50;34.00;;;22.70;77.20;;;;;;4990715;28;20482;-78
2021/06/22 10:06:43;;;;;;;37.10;35.00;;;22.70;78.30;;;;;;4971364;28;20521;-77
2021/06/22 10:09:10;;;;;;;38.83;35.87;;;22.80;78.40;;;;;;5010931;28;20563;-76
2021/06/22 10:11:40;;;;;;;35.70;33.60;;;22.80;78.80;;;;;;4991709;28;20451;-78
2021/06/22 10:14:09;;;;;;;33.63;31.67;;;22.80;78.20;;;;;;5010666;28;20486;-78
2021/06/22 10:16:37;;;;;;;36.87;34.67;;;22.80;77.70;;;;;;5014922;28;20470;-78
2021/06/22 10:19:06;;;;;;;38.37;36.07;;;23.10;77.60;;;;;;4965743;28;21166;-77
2021/06/22 10:21:34;;;;;;;38.00;35.70;;;23.20;77.20;;;;;;4977272;28;20486;-80
2021/06/22 10:24:05;;;;;;;35.60;33.47;;;23.30;76.40;;;;;;4994254;28;20485;-79
2021/06/22 10:26:32;;;;;;;40.77;38.20;;;23.30;76.60;;;;;;4972384;28;21396;-79
2021/06/22 10:29:04;;;;;;;35.40;33.37;;;23.20;76.70;;;;;;5001180;28;20481;-79
2021/06/22 10:31:31;;;;;;;36.97;34.77;;;23.30;76.60;;;;;;5006980;28;20486;-79
2021/06/22 10:33:58;;;;;;;35.80;33.17;;;23.30;76.30;;;;;;4996833;28;20477;-78
2021/06/22 10:36:30;;;;;;;35.80;33.60;;;23.10;75.80;;;;;;4957742;28;20706;-78
2021/06/22 10:39:05;;;;;;;37.03;34.60;;;23.10;76.20;;;;;;4985223;28;20534;-78
2021/06/22 10:41:39;;;;;;;34.87;32.53;;;23.20;76.70;;;;;;5014108;28;20477;-79
2021/06/22 10:44:35;;;;;;;36.33;33.93;;;22.80;76.00;;;;;;4960475;28;20497;-78
2021/06/22 10:47:25;;;;;;;37.00;34.80;;;22.40;78.30;;;;;;4970689;28;21019;-79
2021/06/22 10:50:20;;;;;;;37.80;35.60;;;22.00;79.60;;;;;;4978725;28;20458;-79
2021/06/22 10:53:11;;;;;;;35.37;33.03;;;22.00;79.30;;;;;;4965244;28;20462;-80
2021/06/22 10:56:13;;;;;;;33.07;31.07;;;21.90;78.70;;;;;;4983388;28;20467;-80
2021/06/22 10:58:40;;;;;;;31.90;30.00;;;22.00;78.40;;;;;;4963399;28;20956;-79
2021/06/22 11:01:14;;;;;;;33.63;31.63;;;22.20;77.80;;;;;;4989802;28;20478;-79
2021/06/22 11:03:41;;;;;;;36.37;34.13;;;22.20;77.50;;;;;;4998561;28;20479;-80
2021/06/22 11:06:29;;;;;;;35.77;33.77;;;22.10;77.60;;;;;;4995045;28;20470;-80
2021/06/22 11:09:19;;;;;;;35.73;33.57;;;22.00;77.10;;;;;;4980756;28;20486;-78
2021/06/22 11:11:47;;;;;;;31.50;29.70;;;22.20;76.60;;;;;;4988962;28;20486;-76
2021/06/22 11:14:16;;;;;;;33.60;31.60;;;22.20;76.30;;;;;;4972328;28;20536;-78
2021/06/22 11:16:43;;;;;;;34.37;32.17;;;22.00;77.50;;;;;;4978664;28;20461;-76
2021/06/22 11:19:12;;;;;;;31.20;29.40;;;21.60;78.40;;;;;;4973903;28;20471;-77
2021/06/22 11:21:53;;;;;;;31.67;29.80;;;21.30;79.50;;;;;;4965221;28;21061;-78
2021/06/22 11:24:22;;;;;;;32.87;30.77;;;21.20;80.60;;;;;;4982835;28;20486;-78
2021/06/22 11:27:13;;;;;;;32.50;30.50;;;20.90;81.90;;;;;;4962369;28;20465;-77
2021/06/22 11:29:48;;;;;;;33.53;31.43;;;20.80;83.00;;;;;;5024264;28;20532;-78
2021/06/22 11:32:35;;;;;;;34.80;32.70;;;20.80;83.50;;;;;;4981310;28;20514;-77
2021/06/22 11:35:10;;;;;;;33.53;31.37;;;20.60;84.90;;;;;;4972457;28;20635;-77
2021/06/22 11:37:38;;;;;;;36.00;33.73;;;20.30;85.80;;;;;;4984031;28;20474;-78
2021/06/22 11:40:11;;;;;;;35.00;32.80;;;20.10;86.90;;;;;;4995494;28;20555;-76
2021/06/22 11:42:43;;;;;;;31.47;29.17;;;20.00;87.40;;;;;;4966802;28;20493;-79
2021/06/22 11:45:25;;;;;;;35.00;33.00;;;20.10;87.10;;;;;;4973475;28;20917;-78
2021/06/22 11:47:57;;;;;;;31.77;29.60;;;20.30;86.30;;;;;;4983662;28;20864;-78
2021/06/22 11:50:36;;;;;;;30.47;28.67;;;20.50;85.10;;;;;;4966216;28;20469;-79
2021/06/22 11:53:15;;;;;;;30.83;28.70;;;20.70;84.30;;;;;;4967477;28;20471;-79
2021/06/22 11:55:54;;;;;;;28.50;26.90;;;20.80;83.80;;;;;;4981680;28;20458;-78
2021/06/22 11:58:28;;;;;;;30.40;28.50;;;20.70;83.20;;;;;;4993154;28;20465;-80
2021/06/22 12:00:58;;;;;;;31.90;29.60;;;20.70;83.10;;;;;;4968216;28;20491;-79
2021/06/22 12:03:33;;;;;;;32.67;30.67;;;20.60;83.20;;;;;;4996727;28;20487;-79
2021/06/22 12:06:10;;;;;;;32.10;30.10;;;20.60;83.30;;;;;;4994168;28;20583;-80
2021/06/22 12:08:39;;;;;;;29.97;28.17;;;20.60;83.60;;;;;;5013453;28;20541;-81
2021/06/22 12:11:06;;;;;;;30.47;28.47;;;20.70;83.00;;;;;;4996542;28;21064;-81
2021/06/22 12:13:40;;;;;;;29.00;27.20;;;20.70;82.10;;;;;;5003580;28;20522;-76
2021/06/22 12:16:25;;;;;;;28.83;27.03;;;20.80;81.90;;;;;;5009416;28;20553;-75
2021/06/22 12:18:57;;;;;;;29.47;27.67;;;20.50;82.40;;;;;;5007614;28;20612;-77
2021/06/22 12:21:26;;;;;;;27.90;26.30;;;20.30;82.70;;;;;;4989846;28;20601;-80
2021/06/22 12:24:00;;;;;;;30.87;28.97;;;20.00;83.70;;;;;;4995765;28;21101;-77
2021/06/22 12:26:27;;;;;;;29.10;27.30;;;19.80;84.30;;;;;;5005780;28;20540;-83
2021/06/22 12:28:55;;;;;;;27.97;26.40;;;19.80;84.60;;;;;;4971256;28;20462;-80
2021/06/22 12:31:22;;;;;;;29.77;28.07;;;19.90;84.50;;;;;;5014559;28;20577;-79
2021/06/22 12:33:49;;;;;;;32.00;30.03;;;19.90;84.60;;;;;;4983131;28;20484;-80
2021/06/22 12:36:20;;;;;;;29.13;27.30;;;19.90;84.70;;;;;;4989922;28;20553;-79
2021/06/22 12:38:49;;;;;;;28.47;26.70;;;20.00;84.50;;;;;;5009525;28;20977;-79